< < Back
Terminal Aerodrome Forecast


Current Version              Previous Versions:   1  2  3  4  5  6  7  8  9  

Terminal Aerodrome Forecast

974
FTUS44 KMOB 231500 AAA
TAFMOB
TAF AMD
KMOB 231509Z 2315/2412 17018G30KT 6SM BR FEW008 BKN013 OVC019
     FM231600 19016G26KT 2SM TSRA BKN004 OVC015CB
      TEMPO 2316/2318 VRB25G35KT 1SM +TSRA BKN004 OVC015CB
     FM232100 20013G20KT P6SM -RA SCT007 OVC015=



Latest METAR

877
SAUS80 KWBC 232200
MTRMOB
METAR KMOB 232156Z 21015G24KT 10SM SCT020 19/16 A2968 RMK AO2 SLP050
T01890161 $


USA.gov is the U.S. government's official web portal to all federal, state and local government web resources and services.